ěÝzenÝ letovÚho provozu ╚eskÚ republiky
Letiste: LKLN Aktualizace: 24.09.2023 04:28:38  UTC
 METAR LKLN 24.09. 04:30 ...
METAR LKLN 240430Z AUTO 00000KT 9999 // NCD 04/04 Q1026=